Time;durP1;ratioP1;P1;durP2;ratioP2;P2;SDS_P1;SDS_P2;PMS_P1;PMS_P2;Temp;Humidity;BMP_temperature;BMP_pressure;BME280_temperature;BME280_humidity;BME280_pressure;Samples;Min_cycle;Max_cycle;Signal;HPM_P1;HPM_P2
2022/06/15 00:01:47;;;;;;;4.2;8.9;;;;;;;10.5;100;99060;;;;
2022/06/15 00:12:47;;;;;;;4.2;8.9;;;;;;;10.4;100;99070;;;;
2022/06/15 00:22:47;;;;;;;4.2;8.9;;;;;;;10.2;100;99070;;;;
2022/06/15 00:33:47;;;;;;;2.8;7.9;;;;;;;9.9;100;99080;;;;
2022/06/15 00:44:49;;;;;;;2.8;7.9;;;;;;;9.7;100;99070;;;;
2022/06/15 00:55:47;;;;;;;2.8;7.9;;;;;;;9.5;100;99070;;;;
2022/06/15 01:05:47;;;;;;;2.7;5.6;;;;;;;9.3;100;99070;;;;
2022/06/15 01:15:47;;;;;;;2.7;5.6;;;;;;;9.1;100;99070;;;;
2022/06/15 01:26:47;;;;;;;3.2;6.3;;;;;;;9;100;99070;;;;
2022/06/15 01:37:47;;;;;;;3.2;6.3;;;;;;;8.9;100;99070;;;;
2022/06/15 01:47:47;;;;;;;3.2;6.3;;;;;;;8.9;100;99060;;;;
2022/06/15 01:57:47;;;;;;;3.5;7;;;;;;;9;100;99050;;;;
2022/06/15 02:08:47;;;;;;;3.5;7;;;;;;;9.2;100;99060;;;;
2022/06/15 02:19:47;;;;;;;3.5;7;;;;;;;9.4;100;99060;;;;
2022/06/15 02:30:47;;;;;;;3.6;8;;;;;;;9.3;100;99060;;;;
2022/06/15 02:40:47;;;;;;;3.6;8;;;;;;;9.5;100;99060;;;;
2022/06/15 02:51:47;;;;;;;3.6;8;;;;;;;9.8;100;99070;;;;
2022/06/15 03:02:47;;;;;;;4.2;7.7;;;;;;;9.8;100;99080;;;;
2022/06/15 03:13:47;;;;;;;4.2;7.7;;;;;;;9.9;100;99070;;;;
2022/06/15 03:23:47;;;;;;;4.2;7.7;;;;;;;9.9;100;99080;;;;
2022/06/15 03:33:47;;;;;;;5;9.2;;;;;;;9.6;100;99080;;;;
2022/06/15 03:44:47;;;;;;;5;9.2;;;;;;;9.5;100;99090;;;;
2022/06/15 03:55:47;;;;;;;5;9.2;;;;;;;9.8;100;99080;;;;
2022/06/15 04:06:47;;;;;;;5.4;8.5;;;;;;;10.1;100;99080;;;;
2022/06/15 04:16:53;;;;;;;5.4;8.5;;;;;;;10.2;100;99080;;;;
2022/06/15 04:26:47;;;;;;;4;7.2;;;;;;;10.2;100;99080;;;;
2022/06/15 04:37:47;;;;;;;4;7.2;;;;;;;10.8;100;99080;;;;
2022/06/15 04:47:48;;;;;;;4;7.2;;;;;;;11.2;100;99080;;;;
2022/06/15 04:58:47;;;;;;;5;8.7;;;;;;;11.9;100;99080;;;;
2022/06/15 05:08:47;;;;;;;5;8.7;;;;;;;12.4;100;99080;;;;
2022/06/15 05:19:47;;;;;;;5;8.7;;;;;;;12.9;100;99080;;;;
2022/06/15 05:29:47;;;;;;;5;8.6;;;;;;;13.4;100;99090;;;;
2022/06/15 05:40:47;;;;;;;5;8.6;;;;;;;13.9;100;99100;;;;
2022/06/15 05:50:47;;;;;;;5;8.6;;;;;;;14.3;100;99100;;;;
2022/06/15 06:01:47;;;;;;;3.8;8.8;;;;;;;14.6;100;99110;;;;
2022/06/15 06:11:47;;;;;;;3.8;8.8;;;;;;;14.9;100;99100;;;;
2022/06/15 06:21:47;;;;;;;3.8;8.8;;;;;;;15.3;100;99110;;;;
2022/06/15 06:32:47;;;;;;;10.5;35.9;;;;;;;15.6;100;99120;;;;
2022/06/15 06:43:47;;;;;;;10.5;35.9;;;;;;;16.1;100;99130;;;;
2022/06/15 06:53:47;;;;;;;10.5;35.9;;;;;;;16.1;100;99120;;;;
2022/06/15 07:03:47;;;;;;;3.1;7.7;;;;;;;16.3;100;99130;;;;
2022/06/15 07:14:50;;;;;;;3.1;7.7;;;;;;;17;100;99130;;;;
2022/06/15 07:24:47;;;;;;;3.1;7.7;;;;;;;17.1;100;99120;;;;
2022/06/15 07:35:47;;;;;;;2.6;6.1;;;;;;;17.3;100;99120;;;;
2022/06/15 07:46:47;;;;;;;2.6;6.1;;;;;;;17.5;100;99120;;;;
2022/06/15 07:56:47;;;;;;;2.4;5.3;;;;;;;17.8;100;99120;;;;
2022/06/15 08:06:48;;;;;;;2.4;5.3;;;;;;;18.3;99.8;99120;;;;
2022/06/15 08:16:47;;;;;;;2.4;5.3;;;;;;;18.5;100;99120;;;;
2022/06/15 08:26:47;;;;;;;1.9;6.1;;;;;;;18.4;98.9;99120;;;;
2022/06/15 08:37:47;;;;;;;1.9;6.1;;;;;;;18.7;97.4;99120;;;;
2022/06/15 08:47:47;;;;;;;1.9;6.1;;;;;;;19;96.7;99120;;;;
2022/06/15 08:58:47;;;;;;;2.4;6.6;;;;;;;18.9;97.9;99120;;;;
2022/06/15 09:08:47;;;;;;;2.4;6.6;;;;;;;19.1;98.4;99120;;;;
2022/06/15 09:18:47;;;;;;;2.4;6.6;;;;;;;19.6;100;99120;;;;
2022/06/15 09:28:47;;;;;;;3.2;8.6;;;;;;;19.4;100;99130;;;;
2022/06/15 09:39:47;;;;;;;3.2;8.6;;;;;;;19.5;97.2;99120;;;;
2022/06/15 09:50:47;;;;;;;3.2;8.6;;;;;;;19.5;100;99090;;;;
2022/06/15 10:00:47;;;;;;;2.6;5.8;;;;;;;20;98.3;99100;;;;
2022/06/15 10:11:47;;;;;;;2.6;5.8;;;;;;;20.3;100;99100;;;;
2022/06/15 10:21:47;;;;;;;2.6;5.8;;;;;;;20.5;99.1;99090;;;;
2022/06/15 10:31:47;;;;;;;2.7;8.7;;;;;;;20.1;94.4;99090;;;;
2022/06/15 10:41:47;;;;;;;2.7;8.7;;;;;;;21;92.6;99080;;;;
2022/06/15 10:51:47;;;;;;;2.7;8.7;;;;;;;21;92.6;99070;;;;
2022/06/15 11:02:18;;;;;;;2.2;5;;;;;;;21.1;91.7;99060;;;;
2022/06/15 11:11:47;;;;;;;2.2;5;;;;;;;21.4;89.4;99060;;;;
2022/06/15 11:21:47;;;;;;;2.2;5;;;;;;;21.5;92.1;99050;;;;
2022/06/15 11:32:47;;;;;;;2.6;7;;;;;;;21.9;88.8;99050;;;;
2022/06/15 11:42:49;;;;;;;2.6;7;;;;;;;22.3;86.8;99050;;;;
2022/06/15 11:53:47;;;;;;;2.6;7;;;;;;;22.5;90;99040;;;;
2022/06/15 12:03:47;;;;;;;2.3;4.9;;;;;;;22.2;86.7;99030;;;;
2022/06/15 12:14:47;;;;;;;2.3;4.9;;;;;;;22.3;72.5;99020;;;;
2022/06/15 12:24:47;;;;;;;2.3;4.9;;;;;;;22.5;73.5;99020;;;;
2022/06/15 12:34:47;;;;;;;1.9;4.1;;;;;;;22.6;74.1;99020;;;;
2022/06/15 12:45:47;;;;;;;1.9;4.1;;;;;;;22.5;74.6;99010;;;;
2022/06/15 12:56:47;;;;;;;2.8;5.9;;;;;;;22.5;71.2;99010;;;;
2022/06/15 13:06:47;;;;;;;2.8;5.9;;;;;;;22.9;73.5;99000;;;;
2022/06/15 13:18:05;;;;;;;2.8;5.9;;;;;;;22.7;73.4;98990;;;;
2022/06/15 13:27:47;;;;;;;2.3;5.1;;;;;;;23;74.2;98990;;;;
2022/06/15 13:38:47;;;;;;;2.3;5.1;;;;;;;23.5;72.5;98990;;;;
2022/06/15 13:48:47;;;;;;;2.3;5.1;;;;;;;23.4;68.9;98990;;;;
2022/06/15 13:59:47;;;;;;;2.2;5;;;;;;;23.6;77.8;98980;;;;
2022/06/15 14:10:47;;;;;;;2.2;5;;;;;;;23.5;68;98970;;;;
2022/06/15 14:20:47;;;;;;;2.2;5;;;;;;;23.7;68.3;98980;;;;
2022/06/15 14:30:47;;;;;;;2.3;6.3;;;;;;;24.2;69.2;98950;;;;
2022/06/15 14:41:48;;;;;;;2.3;6.3;;;;;;;24.6;66;98950;;;;
2022/06/15 14:52:47;;;;;;;2.3;6.3;;;;;;;24.8;66.7;98950;;;;
2022/06/15 15:02:47;;;;;;;2.2;5.5;;;;;;;26.3;61.5;98940;;;;
2022/06/15 15:12:47;;;;;;;2.2;5.5;;;;;;;28.9;48.2;98940;;;;
2022/06/15 15:22:47;;;;;;;2.2;5.5;;;;;;;29.6;46.1;98940;;;;
2022/06/15 15:34:19;;;;;;;2.1;4.7;;;;;;;31;44.7;98930;;;;
2022/06/15 15:43:47;;;;;;;2.1;4.7;;;;;;;32.1;43;98930;;;;
2022/06/15 15:54:47;;;;;;;2.1;4.7;;;;;;;33.1;40;98920;;;;
2022/06/15 16:04:47;;;;;;;4.5;7.8;;;;;;;33.9;39;98920;;;;
2022/06/15 16:15:47;;;;;;;4.5;7.8;;;;;;;34.7;39.5;98920;;;;
2022/06/15 16:25:47;;;;;;;4.5;7.8;;;;;;;32.9;40.1;98910;;;;
2022/06/15 16:36:47;;;;;;;2.4;5.9;;;;;;;33.3;39.9;98900;;;;
2022/06/15 16:47:47;;;;;;;2.4;5.9;;;;;;;34.3;38.2;98900;;;;
2022/06/15 16:57:47;;;;;;;4.3;8.5;;;;;;;33.9;37.9;98890;;;;
2022/06/15 17:08:47;;;;;;;4.3;8.5;;;;;;;31.9;40.5;98880;;;;
2022/06/15 17:18:47;;;;;;;4.3;8.5;;;;;;;28.8;46.1;98860;;;;
2022/06/15 17:28:49;;;;;;;2.7;6;;;;;;;27.9;47.9;98860;;;;
2022/06/15 17:39:48;;;;;;;2.7;6;;;;;;;29.7;49.5;98870;;;;
2022/06/15 17:50:47;;;;;;;2.7;6;;;;;;;30.5;48.3;98870;;;;
2022/06/15 18:00:48;;;;;;;2.5;6.8;;;;;;;30;48.5;98870;;;;
2022/06/15 18:10:47;;;;;;;2.5;6.8;;;;;;;27.2;54.8;98870;;;;
2022/06/15 18:21:48;;;;;;;2.5;6.8;;;;;;;24.2;59.8;98850;;;;
2022/06/15 18:31:47;;;;;;;2.9;6.3;;;;;;;22.3;65.3;98860;;;;
2022/06/15 18:41:47;;;;;;;2.9;6.3;;;;;;;21;72.3;98850;;;;
2022/06/15 18:52:48;;;;;;;2.9;6.3;;;;;;;19.7;80.4;98850;;;;
2022/06/15 19:02:48;;;;;;;7.7;14.9;;;;;;;18.5;92;98860;;;;
2022/06/15 19:12:47;;;;;;;7.7;14.9;;;;;;;17.6;96.4;98880;;;;
2022/06/15 19:23:48;;;;;;;7.7;14.9;;;;;;;16.9;100;98880;;;;
2022/06/15 19:33:48;;;;;;;9.3;12.6;;;;;;;16.5;100;98880;;;;
2022/06/15 19:43:49;;;;;;;9.3;12.6;;;;;;;16.3;100;98890;;;;
2022/06/15 19:54:47;;;;;;;9.3;12.6;;;;;;;15.9;100;98890;;;;
2022/06/15 20:04:47;;;;;;;5.1;8.5;;;;;;;15.7;100;98880;;;;
2022/06/15 20:14:47;;;;;;;5.1;8.5;;;;;;;15.5;100;98890;;;;
2022/06/15 20:24:47;;;;;;;5.1;8.5;;;;;;;15.3;100;98890;;;;
2022/06/15 20:35:47;;;;;;;6.6;12;;;;;;;15.1;100;98890;;;;
2022/06/15 20:45:48;;;;;;;6.6;12;;;;;;;15;100;98900;;;;
2022/06/15 20:56:51;;;;;;;5.5;9.4;;;;;;;14.8;100;98900;;;;
2022/06/15 21:06:48;;;;;;;5.5;9.4;;;;;;;14.6;100;98900;;;;
2022/06/15 21:17:47;;;;;;;5.5;9.4;;;;;;;14.4;100;98900;;;;
2022/06/15 21:28:48;;;;;;;5.1;11.4;;;;;;;14.3;100;98900;;;;
2022/06/15 21:39:47;;;;;;;5.1;11.4;;;;;;;14.1;100;98890;;;;
2022/06/15 21:49:47;;;;;;;5.1;11.4;;;;;;;14;100;98880;;;;
2022/06/15 21:59:47;;;;;;;5.3;9;;;;;;;13.9;100;98860;;;;
2022/06/15 22:10:47;;;;;;;5.3;9;;;;;;;13.9;100;98860;;;;
2022/06/15 22:20:47;;;;;;;5.3;9;;;;;;;14;100;98860;;;;
2022/06/15 22:30:47;;;;;;;6.3;9.6;;;;;;;14.1;100;98850;;;;
2022/06/15 22:41:47;;;;;;;6.3;9.6;;;;;;;14;100;98860;;;;
2022/06/15 22:51:47;;;;;;;6.3;9.6;;;;;;;14;100;98850;;;;
2022/06/15 23:01:48;;;;;;;5.7;9.4;;;;;;;13.9;100;98860;;;;
2022/06/15 23:12:47;;;;;;;5.7;9.4;;;;;;;13.9;100;98850;;;;
2022/06/15 23:22:47;;;;;;;5.7;9.4;;;;;;;14;100;98860;;;;
2022/06/15 23:32:48;;;;;;;6.1;8.5;;;;;;;13.9;100;98860;;;;
2022/06/15 23:43:48;;;;;;;6.1;8.5;;;;;;;13.8;100;98850;;;;
2022/06/15 23:53:47;;;;;;;6.1;8.5;;;;;;;13.5;100;98840;;;;
